sensor_id;sensor_type;location;lat;lon;timestamp;temperature;humidity
42965;DHT22;28604;51.204;22.552;2023-04-21T00:00:50;12.60;61.50
42965;DHT22;28604;51.204;22.552;2023-04-21T00:03:20;12.60;61.20
42965;DHT22;28604;51.204;22.552;2023-04-21T00:05:48;12.50;61.50
42965;DHT22;28604;51.204;22.552;2023-04-21T00:08:16;12.50;61.20
42965;DHT22;28604;51.204;22.552;2023-04-21T00:10:42;12.40;61.40
42965;DHT22;28604;51.204;22.552;2023-04-21T00:13:08;12.40;61.10
42965;DHT22;28604;51.204;22.552;2023-04-21T00:15:35;12.30;61.00
42965;DHT22;28604;51.204;22.552;2023-04-21T00:18:01;12.30;61.00
42965;DHT22;28604;51.204;22.552;2023-04-21T00:20:28;12.30;61.10
42965;DHT22;28604;51.204;22.552;2023-04-21T00:22:55;12.20;61.50
42965;DHT22;28604;51.204;22.552;2023-04-21T00:25:22;12.10;61.80
42965;DHT22;28604;51.204;22.552;2023-04-21T00:27:48;12.10;62.40
42965;DHT22;28604;51.204;22.552;2023-04-21T00:30:15;12.10;62.30
42965;DHT22;28604;51.204;22.552;2023-04-21T00:32:41;12.10;62.10
42965;DHT22;28604;51.204;22.552;2023-04-21T00:35:07;12.00;62.40
42965;DHT22;28604;51.204;22.552;2023-04-21T00:37:34;12.00;62.40
42965;DHT22;28604;51.204;22.552;2023-04-21T00:39:59;12.00;62.80
42965;DHT22;28604;51.204;22.552;2023-04-21T00:42:26;11.90;62.90
42965;DHT22;28604;51.204;22.552;2023-04-21T00:44:53;11.80;63.00
42965;DHT22;28604;51.204;22.552;2023-04-21T00:47:19;11.80;63.30
42965;DHT22;28604;51.204;22.552;2023-04-21T00:49:46;11.80;63.50
42965;DHT22;28604;51.204;22.552;2023-04-21T00:52:13;11.80;63.10
42965;DHT22;28604;51.204;22.552;2023-04-21T00:54:41;11.70;63.70
42965;DHT22;28604;51.204;22.552;2023-04-21T00:57:08;11.70;63.40
42965;DHT22;28604;51.204;22.552;2023-04-21T00:59:35;11.70;63.40
42965;DHT22;28604;51.204;22.552;2023-04-21T01:02:02;11.70;63.50
42965;DHT22;28604;51.204;22.552;2023-04-21T01:04:28;11.70;63.40
42965;DHT22;28604;51.204;22.552;2023-04-21T01:07:00;11.60;63.50
42965;DHT22;28604;51.204;22.552;2023-04-21T01:09:26;11.60;63.70
42965;DHT22;28604;51.204;22.552;2023-04-21T01:12:07;11.60;64.30
42965;DHT22;28604;51.204;22.552;2023-04-21T01:14:34;11.60;63.60
42965;DHT22;28604;51.204;22.552;2023-04-21T01:17:00;11.50;63.70
42965;DHT22;28604;51.204;22.552;2023-04-21T01:19:31;11.50;63.60
42965;DHT22;28604;51.204;22.552;2023-04-21T01:21:57;11.50;63.80
42965;DHT22;28604;51.204;22.552;2023-04-21T01:24:35;11.50;63.80
42965;DHT22;28604;51.204;22.552;2023-04-21T01:27:02;11.50;63.70
42965;DHT22;28604;51.204;22.552;2023-04-21T01:29:32;11.40;63.80
42965;DHT22;28604;51.204;22.552;2023-04-21T01:32:04;11.40;63.60
42965;DHT22;28604;51.204;22.552;2023-04-21T01:34:31;11.40;63.70
42965;DHT22;28604;51.204;22.552;2023-04-21T01:36:57;11.40;63.80
42965;DHT22;28604;51.204;22.552;2023-04-21T01:39:22;11.40;64.00
42965;DHT22;28604;51.204;22.552;2023-04-21T01:41:50;11.40;63.90
42965;DHT22;28604;51.204;22.552;2023-04-21T01:44:15;11.40;63.80
42965;DHT22;28604;51.204;22.552;2023-04-21T01:46:42;11.30;64.20
42965;DHT22;28604;51.204;22.552;2023-04-21T01:49:07;11.20;63.60
42965;DHT22;28604;51.204;22.552;2023-04-21T01:51:33;11.10;64.50
42965;DHT22;28604;51.204;22.552;2023-04-21T01:53:59;11.10;63.90
42965;DHT22;28604;51.204;22.552;2023-04-21T01:56:25;11.10;64.20
42965;DHT22;28604;51.204;22.552;2023-04-21T01:58:51;11.10;64.20
42965;DHT22;28604;51.204;22.552;2023-04-21T02:01:18;11.10;64.20
42965;DHT22;28604;51.204;22.552;2023-04-21T02:03:43;11.00;64.40
42965;DHT22;28604;51.204;22.552;2023-04-21T02:06:10;11.00;64.70
42965;DHT22;28604;51.204;22.552;2023-04-21T02:08:39;11.00;64.40
42965;DHT22;28604;51.204;22.552;2023-04-21T02:11:06;11.00;64.10
42965;DHT22;28604;51.204;22.552;2023-04-21T02:13:32;11.00;64.50
42965;DHT22;28604;51.204;22.552;2023-04-21T02:15:58;11.00;64.60
42965;DHT22;28604;51.204;22.552;2023-04-21T02:18:24;10.90;64.90
42965;DHT22;28604;51.204;22.552;2023-04-21T02:20:51;10.90;64.70
42965;DHT22;28604;51.204;22.552;2023-04-21T02:23:16;10.80;65.10
42965;DHT22;28604;51.204;22.552;2023-04-21T02:25:42;10.80;65.40
42965;DHT22;28604;51.204;22.552;2023-04-21T02:28:08;10.80;64.60
42965;DHT22;28604;51.204;22.552;2023-04-21T02:30:34;10.80;64.70
42965;DHT22;28604;51.204;22.552;2023-04-21T02:33:00;10.80;65.00
42965;DHT22;28604;51.204;22.552;2023-04-21T02:35:26;10.70;65.10
42965;DHT22;28604;51.204;22.552;2023-04-21T02:37:52;10.70;65.00
42965;DHT22;28604;51.204;22.552;2023-04-21T02:40:18;10.70;65.00
42965;DHT22;28604;51.204;22.552;2023-04-21T02:42:44;10.70;65.00
42965;DHT22;28604;51.204;22.552;2023-04-21T02:45:10;10.70;65.00
42965;DHT22;28604;51.204;22.552;2023-04-21T02:47:36;10.70;64.80
42965;DHT22;28604;51.204;22.552;2023-04-21T02:50:03;10.70;64.90
42965;DHT22;28604;51.204;22.552;2023-04-21T02:52:28;10.70;64.40
42965;DHT22;28604;51.204;22.552;2023-04-21T02:54:55;10.60;64.20
42965;DHT22;28604;51.204;22.552;2023-04-21T02:57:20;10.50;64.30
42965;DHT22;28604;51.204;22.552;2023-04-21T02:59:46;10.50;64.70
42965;DHT22;28604;51.204;22.552;2023-04-21T03:02:12;10.50;64.90
42965;DHT22;28604;51.204;22.552;2023-04-21T03:04:38;10.40;64.40
42965;DHT22;28604;51.204;22.552;2023-04-21T03:07:04;10.40;64.50
42965;DHT22;28604;51.204;22.552;2023-04-21T03:09:31;10.40;64.40
42965;DHT22;28604;51.204;22.552;2023-04-21T03:11:58;10.40;64.30
42965;DHT22;28604;51.204;22.552;2023-04-21T03:14:24;10.30;64.80
42965;DHT22;28604;51.204;22.552;2023-04-21T03:16:50;10.30;65.00
42965;DHT22;28604;51.204;22.552;2023-04-21T03:19:16;10.30;65.30
42965;DHT22;28604;51.204;22.552;2023-04-21T03:21:49;10.30;65.00
42965;DHT22;28604;51.204;22.552;2023-04-21T03:24:15;10.30;65.00
42965;DHT22;28604;51.204;22.552;2023-04-21T03:26:41;10.30;64.60
42965;DHT22;28604;51.204;22.552;2023-04-21T03:29:07;10.20;65.20
42965;DHT22;28604;51.204;22.552;2023-04-21T03:31:32;10.20;64.80
42965;DHT22;28604;51.204;22.552;2023-04-21T03:33:59;10.20;65.10
42965;DHT22;28604;51.204;22.552;2023-04-21T03:36:25;10.20;65.10
42965;DHT22;28604;51.204;22.552;2023-04-21T03:38:51;10.10;65.10
42965;DHT22;28604;51.204;22.552;2023-04-21T03:41:16;10.10;65.40
42965;DHT22;28604;51.204;22.552;2023-04-21T03:43:43;10.10;64.90
42965;DHT22;28604;51.204;22.552;2023-04-21T03:46:19;10.10;64.80
42965;DHT22;28604;51.204;22.552;2023-04-21T03:48:46;10.00;65.70
42965;DHT22;28604;51.204;22.552;2023-04-21T03:51:13;10.10;65.00
42965;DHT22;28604;51.204;22.552;2023-04-21T03:53:39;10.00;65.60
42965;DHT22;28604;51.204;22.552;2023-04-21T03:56:05;10.00;65.30
42965;DHT22;28604;51.204;22.552;2023-04-21T03:58:31;10.00;64.60
42965;DHT22;28604;51.204;22.552;2023-04-21T04:00:57;10.00;64.80
42965;DHT22;28604;51.204;22.552;2023-04-21T04:03:23;10.00;64.90
42965;DHT22;28604;51.204;22.552;2023-04-21T04:05:49;10.00;65.30
42965;DHT22;28604;51.204;22.552;2023-04-21T04:08:15;10.00;65.10
42965;DHT22;28604;51.204;22.552;2023-04-21T04:10:40;10.00;64.80
42965;DHT22;28604;51.204;22.552;2023-04-21T04:13:06;10.10;65.10
42965;DHT22;28604;51.204;22.552;2023-04-21T04:15:32;10.10;64.50
42965;DHT22;28604;51.204;22.552;2023-04-21T04:17:58;10.10;64.70
42965;DHT22;28604;51.204;22.552;2023-04-21T04:20:24;10.10;64.80
42965;DHT22;28604;51.204;22.552;2023-04-21T04:22:50;10.10;64.50
42965;DHT22;28604;51.204;22.552;2023-04-21T04:25:16;10.20;64.90
42965;DHT22;28604;51.204;22.552;2023-04-21T04:27:43;10.10;64.50
42965;DHT22;28604;51.204;22.552;2023-04-21T04:30:11;10.20;64.50
42965;DHT22;28604;51.204;22.552;2023-04-21T04:32:37;10.20;64.50
42965;DHT22;28604;51.204;22.552;2023-04-21T04:35:08;10.30;64.50
42965;DHT22;28604;51.204;22.552;2023-04-21T04:37:38;10.30;64.60
42965;DHT22;28604;51.204;22.552;2023-04-21T04:40:04;10.40;64.50
42965;DHT22;28604;51.204;22.552;2023-04-21T04:42:31;10.40;64.40
42965;DHT22;28604;51.204;22.552;2023-04-21T04:44:58;10.40;64.10
42965;DHT22;28604;51.204;22.552;2023-04-21T04:47:26;10.50;64.00
42965;DHT22;28604;51.204;22.552;2023-04-21T04:49:53;10.50;63.80
42965;DHT22;28604;51.204;22.552;2023-04-21T04:52:19;10.50;63.80
42965;DHT22;28604;51.204;22.552;2023-04-21T04:54:45;10.60;63.70
42965;DHT22;28604;51.204;22.552;2023-04-21T04:57:11;10.60;64.30
42965;DHT22;28604;51.204;22.552;2023-04-21T04:59:37;10.70;63.60
42965;DHT22;28604;51.204;22.552;2023-04-21T05:02:03;10.70;63.50
42965;DHT22;28604;51.204;22.552;2023-04-21T05:04:28;10.70;63.40
42965;DHT22;28604;51.204;22.552;2023-04-21T05:06:55;10.80;63.40
42965;DHT22;28604;51.204;22.552;2023-04-21T05:09:20;10.80;63.30
42965;DHT22;28604;51.204;22.552;2023-04-21T05:11:46;10.90;63.00
42965;DHT22;28604;51.204;22.552;2023-04-21T05:14:12;10.90;63.00
42965;DHT22;28604;51.204;22.552;2023-04-21T05:16:38;10.90;63.00
42965;DHT22;28604;51.204;22.552;2023-04-21T05:19:04;11.00;62.90
42965;DHT22;28604;51.204;22.552;2023-04-21T05:21:30;11.00;63.00
42965;DHT22;28604;51.204;22.552;2023-04-21T05:23:59;11.10;62.80
42965;DHT22;28604;51.204;22.552;2023-04-21T05:26:27;11.20;62.70
42965;DHT22;28604;51.204;22.552;2023-04-21T05:28:54;11.20;62.50
42965;DHT22;28604;51.204;22.552;2023-04-21T05:31:21;11.30;62.50
42965;DHT22;28604;51.204;22.552;2023-04-21T05:33:47;11.40;62.30
42965;DHT22;28604;51.204;22.552;2023-04-21T05:36:13;11.50;62.40
42965;DHT22;28604;51.204;22.552;2023-04-21T05:38:38;11.60;62.40
42965;DHT22;28604;51.204;22.552;2023-04-21T05:41:05;11.80;62.50
42965;DHT22;28604;51.204;22.552;2023-04-21T05:43:30;11.90;62.30
42965;DHT22;28604;51.204;22.552;2023-04-21T05:46:06;12.10;62.10
42965;DHT22;28604;51.204;22.552;2023-04-21T05:48:33;12.30;61.50
42965;DHT22;28604;51.204;22.552;2023-04-21T05:51:13;12.50;61.00
42965;DHT22;28604;51.204;22.552;2023-04-21T05:53:41;13.10;60.40
42965;DHT22;28604;51.204;22.552;2023-04-21T05:56:08;13.80;59.50
42965;DHT22;28604;51.204;22.552;2023-04-21T05:58:34;14.70;57.80
42965;DHT22;28604;51.204;22.552;2023-04-21T06:01:01;15.50;55.70
42965;DHT22;28604;51.204;22.552;2023-04-21T06:03:29;16.20;54.80
42965;DHT22;28604;51.204;22.552;2023-04-21T06:05:55;17.00;53.50
42965;DHT22;28604;51.204;22.552;2023-04-21T06:08:21;17.50;51.70
42965;DHT22;28604;51.204;22.552;2023-04-21T06:10:48;18.20;51.20
42965;DHT22;28604;51.204;22.552;2023-04-21T06:13:14;18.70;49.20
42965;DHT22;28604;51.204;22.552;2023-04-21T06:15:40;19.20;48.40
42965;DHT22;28604;51.204;22.552;2023-04-21T06:18:06;19.60;48.30
42965;DHT22;28604;51.204;22.552;2023-04-21T06:20:32;20.00;47.30
42965;DHT22;28604;51.204;22.552;2023-04-21T06:22:58;20.40;47.00
42965;DHT22;28604;51.204;22.552;2023-04-21T06:25:24;20.70;46.10
42965;DHT22;28604;51.204;22.552;2023-04-21T06:27:49;21.00;45.40
42965;DHT22;28604;51.204;22.552;2023-04-21T06:30:16;21.30;44.40
42965;DHT22;28604;51.204;22.552;2023-04-21T06:32:42;21.60;44.60
42965;DHT22;28604;51.204;22.552;2023-04-21T06:35:10;21.80;44.20
42965;DHT22;28604;51.204;22.552;2023-04-21T06:37:36;22.00;44.30
42965;DHT22;28604;51.204;22.552;2023-04-21T06:40:03;22.40;43.30
42965;DHT22;28604;51.204;22.552;2023-04-21T06:42:29;22.60;42.20
42965;DHT22;28604;51.204;22.552;2023-04-21T06:44:55;22.70;42.30
42965;DHT22;28604;51.204;22.552;2023-04-21T06:47:21;23.00;42.40
42965;DHT22;28604;51.204;22.552;2023-04-21T06:49:47;23.30;42.40
42965;DHT22;28604;51.204;22.552;2023-04-21T06:52:13;23.60;41.90
42965;DHT22;28604;51.204;22.552;2023-04-21T06:54:39;23.90;41.20
42965;DHT22;28604;51.204;22.552;2023-04-21T06:57:05;24.10;41.00
42965;DHT22;28604;51.204;22.552;2023-04-21T06:59:31;24.40;40.80
42965;DHT22;28604;51.204;22.552;2023-04-21T07:01:58;24.70;40.10
42965;DHT22;28604;51.204;22.552;2023-04-21T07:04:24;25.10;40.70
42965;DHT22;28604;51.204;22.552;2023-04-21T07:06:54;25.40;39.70
42965;DHT22;28604;51.204;22.552;2023-04-21T07:09:20;25.70;39.70
42965;DHT22;28604;51.204;22.552;2023-04-21T07:11:46;26.10;39.50
42965;DHT22;28604;51.204;22.552;2023-04-21T07:14:12;26.60;39.20
42965;DHT22;28604;51.204;22.552;2023-04-21T07:16:38;27.00;38.30
42965;DHT22;28604;51.204;22.552;2023-04-21T07:19:04;27.50;38.40
42965;DHT22;28604;51.204;22.552;2023-04-21T07:21:30;27.90;38.30
42965;DHT22;28604;51.204;22.552;2023-04-21T07:23:57;28.30;37.00
42965;DHT22;28604;51.204;22.552;2023-04-21T07:26:23;28.50;37.10
42965;DHT22;28604;51.204;22.552;2023-04-21T07:28:49;28.50;36.40
42965;DHT22;28604;51.204;22.552;2023-04-21T07:31:17;28.60;36.50
42965;DHT22;28604;51.204;22.552;2023-04-21T07:33:43;28.60;36.20
42965;DHT22;28604;51.204;22.552;2023-04-21T07:36:09;28.70;36.40
42965;DHT22;28604;51.204;22.552;2023-04-21T07:38:35;28.80;36.70
42965;DHT22;28604;51.204;22.552;2023-04-21T07:41:03;28.90;36.90
42965;DHT22;28604;51.204;22.552;2023-04-21T07:43:29;28.90;36.10
42965;DHT22;28604;51.204;22.552;2023-04-21T07:45:57;29.20;36.40
42965;DHT22;28604;51.204;22.552;2023-04-21T07:48:23;29.50;36.00
42965;DHT22;28604;51.204;22.552;2023-04-21T07:50:48;29.60;35.50
42965;DHT22;28604;51.204;22.552;2023-04-21T07:53:15;29.90;35.90
42965;DHT22;28604;51.204;22.552;2023-04-21T07:55:41;30.10;35.10
42965;DHT22;28604;51.204;22.552;2023-04-21T07:58:07;30.20;35.10
42965;DHT22;28604;51.204;22.552;2023-04-21T08:00:34;30.40;35.20
42965;DHT22;28604;51.204;22.552;2023-04-21T08:03:00;30.70;35.50
42965;DHT22;28604;51.204;22.552;2023-04-21T08:05:26;31.00;35.70
42965;DHT22;28604;51.204;22.552;2023-04-21T08:07:53;31.40;35.30
42965;DHT22;28604;51.204;22.552;2023-04-21T08:10:19;31.60;34.00
42965;DHT22;28604;51.204;22.552;2023-04-21T08:12:45;31.60;34.40
42965;DHT22;28604;51.204;22.552;2023-04-21T08:15:11;31.60;33.90
42965;DHT22;28604;51.204;22.552;2023-04-21T08:17:37;31.90;33.50
42965;DHT22;28604;51.204;22.552;2023-04-21T08:20:04;32.00;33.20
42965;DHT22;28604;51.204;22.552;2023-04-21T08:22:30;32.10;33.10
42965;DHT22;28604;51.204;22.552;2023-04-21T08:24:56;32.20;32.70
42965;DHT22;28604;51.204;22.552;2023-04-21T08:27:22;32.20;32.90
42965;DHT22;28604;51.204;22.552;2023-04-21T08:29:49;32.20;33.00
42965;DHT22;28604;51.204;22.552;2023-04-21T08:32:15;32.30;33.10
42965;DHT22;28604;51.204;22.552;2023-04-21T08:34:46;32.60;33.50
42965;DHT22;28604;51.204;22.552;2023-04-21T08:37:14;32.80;32.30
42965;DHT22;28604;51.204;22.552;2023-04-21T08:39:39;32.80;31.80
42965;DHT22;28604;51.204;22.552;2023-04-21T08:42:07;32.90;32.00
42965;DHT22;28604;51.204;22.552;2023-04-21T08:44:33;33.00;31.70
42965;DHT22;28604;51.204;22.552;2023-04-21T08:47:00;33.20;30.80
42965;DHT22;28604;51.204;22.552;2023-04-21T08:49:29;33.30;30.80
42965;DHT22;28604;51.204;22.552;2023-04-21T08:51:56;33.20;30.60
42965;DHT22;28604;51.204;22.552;2023-04-21T08:54:22;33.20;30.40
42965;DHT22;28604;51.204;22.552;2023-04-21T08:56:48;33.30;30.60
42965;DHT22;28604;51.204;22.552;2023-04-21T08:59:14;33.40;32.00
42965;DHT22;28604;51.204;22.552;2023-04-21T09:04:30;33.30;30.30
42965;DHT22;28604;51.204;22.552;2023-04-21T09:06:56;33.20;30.70
42965;DHT22;28604;51.204;22.552;2023-04-21T09:09:22;33.20;31.10
42965;DHT22;28604;51.204;22.552;2023-04-21T09:11:58;33.20;30.90
42965;DHT22;28604;51.204;22.552;2023-04-21T09:14:34;32.90;30.40
42965;DHT22;28604;51.204;22.552;2023-04-21T09:17:01;32.70;30.90
42965;DHT22;28604;51.204;22.552;2023-04-21T09:19:28;32.80;31.20
42965;DHT22;28604;51.204;22.552;2023-04-21T09:21:55;32.60;30.60
42965;DHT22;28604;51.204;22.552;2023-04-21T09:24:21;32.70;31.40
42965;DHT22;28604;51.204;22.552;2023-04-21T09:26:51;32.90;31.80
42965;DHT22;28604;51.204;22.552;2023-04-21T09:29:21;32.90;31.00
42965;DHT22;28604;51.204;22.552;2023-04-21T09:31:48;32.90;31.60
42965;DHT22;28604;51.204;22.552;2023-04-21T09:34:23;33.00;31.70
42965;DHT22;28604;51.204;22.552;2023-04-21T09:37:02;32.90;31.10
42965;DHT22;28604;51.204;22.552;2023-04-21T09:39:29;33.00;30.90
42965;DHT22;28604;51.204;22.552;2023-04-21T09:41:56;33.00;31.00
42965;DHT22;28604;51.204;22.552;2023-04-21T09:44:24;32.80;30.20
42965;DHT22;28604;51.204;22.552;2023-04-21T09:46:54;32.80;30.00
42965;DHT22;28604;51.204;22.552;2023-04-21T09:49:22;32.60;30.00
42965;DHT22;28604;51.204;22.552;2023-04-21T09:51:50;32.40;30.20
42965;DHT22;28604;51.204;22.552;2023-04-21T09:54:18;32.20;30.20
42965;DHT22;28604;51.204;22.552;2023-04-21T09:56:48;32.10;30.50
42965;DHT22;28604;51.204;22.552;2023-04-21T09:59:24;32.10;30.80
42965;DHT22;28604;51.204;22.552;2023-04-21T10:01:51;32.20;30.70
42965;DHT22;28604;51.204;22.552;2023-04-21T10:04:18;32.30;30.30
42965;DHT22;28604;51.204;22.552;2023-04-21T10:06:46;32.20;30.00
42965;DHT22;28604;51.204;22.552;2023-04-21T10:09:15;32.00;30.30
42965;DHT22;28604;51.204;22.552;2023-04-21T10:11:43;32.10;30.40
42965;DHT22;28604;51.204;22.552;2023-04-21T10:14:09;32.30;30.90
42965;DHT22;28604;51.204;22.552;2023-04-21T10:16:35;32.40;31.70
42965;DHT22;28604;51.204;22.552;2023-04-21T10:19:22;32.50;30.70
42965;DHT22;28604;51.204;22.552;2023-04-21T10:21:49;32.30;30.10
42965;DHT22;28604;51.204;22.552;2023-04-21T10:24:15;32.20;30.00
42965;DHT22;28604;51.204;22.552;2023-04-21T10:26:41;32.20;30.10
42965;DHT22;28604;51.204;22.552;2023-04-21T10:29:07;32.20;30.00
42965;DHT22;28604;51.204;22.552;2023-04-21T10:31:51;32.00;30.40
42965;DHT22;28604;51.204;22.552;2023-04-21T10:34:38;31.80;30.40
42965;DHT22;28604;51.204;22.552;2023-04-21T10:45:00;31.60;31.30
42965;DHT22;28604;51.204;22.552;2023-04-21T10:47:44;31.60;31.00
42965;DHT22;28604;51.204;22.552;2023-04-21T10:52:52;31.50;30.90
42965;DHT22;28604;51.204;22.552;2023-04-21T10:55:19;31.40;30.80
42965;DHT22;28604;51.204;22.552;2023-04-21T10:57:47;31.40;31.10
42965;DHT22;28604;51.204;22.552;2023-04-21T11:00:19;31.30;31.40
42965;DHT22;28604;51.204;22.552;2023-04-21T11:02:56;31.20;31.00
42965;DHT22;28604;51.204;22.552;2023-04-21T11:05:29;31.10;31.10
42965;DHT22;28604;51.204;22.552;2023-04-21T11:08:03;31.10;31.60
42965;DHT22;28604;51.204;22.552;2023-04-21T11:10:29;30.90;31.20
42965;DHT22;28604;51.204;22.552;2023-04-21T11:13:07;30.80;31.70
42965;DHT22;28604;51.204;22.552;2023-04-21T11:15:33;30.60;31.70
42965;DHT22;28604;51.204;22.552;2023-04-21T11:17:59;30.20;31.60
42965;DHT22;28604;51.204;22.552;2023-04-21T11:20:25;29.90;32.00
42965;DHT22;28604;51.204;22.552;2023-04-21T11:22:51;29.80;31.80
42965;DHT22;28604;51.204;22.552;2023-04-21T11:25:18;29.80;32.00
42965;DHT22;28604;51.204;22.552;2023-04-21T11:27:55;29.80;33.00
42965;DHT22;28604;51.204;22.552;2023-04-21T11:30:31;29.80;32.40
42965;DHT22;28604;51.204;22.552;2023-04-21T11:32:59;29.90;32.30
42965;DHT22;28604;51.204;22.552;2023-04-21T11:35:24;29.80;32.30
42965;DHT22;28604;51.204;22.552;2023-04-21T11:37:51;29.50;31.50
42965;DHT22;28604;51.204;22.552;2023-04-21T11:40:17;29.20;31.80
42965;DHT22;28604;51.204;22.552;2023-04-21T11:42:43;29.10;32.20
42965;DHT22;28604;51.204;22.552;2023-04-21T11:45:19;29.10;32.70
42965;DHT22;28604;51.204;22.552;2023-04-21T11:47:46;29.20;32.50
42965;DHT22;28604;51.204;22.552;2023-04-21T11:50:29;29.20;32.50
42965;DHT22;28604;51.204;22.552;2023-04-21T11:52:56;29.10;32.60
42965;DHT22;28604;51.204;22.552;2023-04-21T11:55:21;28.80;32.20
42965;DHT22;28604;51.204;22.552;2023-04-21T11:57:49;28.70;32.50
42965;DHT22;28604;51.204;22.552;2023-04-21T12:00:16;28.50;32.90
42965;DHT22;28604;51.204;22.552;2023-04-21T12:02:43;28.40;32.60
42965;DHT22;28604;51.204;22.552;2023-04-21T12:05:12;28.20;32.60
42965;DHT22;28604;51.204;22.552;2023-04-21T12:07:45;28.10;32.70
42965;DHT22;28604;51.204;22.552;2023-04-21T12:10:18;28.00;32.50
42965;DHT22;28604;51.204;22.552;2023-04-21T12:12:45;28.00;32.80
42965;DHT22;28604;51.204;22.552;2023-04-21T12:15:17;27.90;32.30
42965;DHT22;28604;51.204;22.552;2023-04-21T12:17:44;27.70;32.60
42965;DHT22;28604;51.204;22.552;2023-04-21T12:20:12;27.60;32.90
42965;DHT22;28604;51.204;22.552;2023-04-21T12:22:40;27.40;32.80
42965;DHT22;28604;51.204;22.552;2023-04-21T12:25:06;27.40;33.10
42965;DHT22;28604;51.204;22.552;2023-04-21T12:27:32;27.40;33.00
42965;DHT22;28604;51.204;22.552;2023-04-21T12:29:58;27.40;33.40
42965;DHT22;28604;51.204;22.552;2023-04-21T12:32:25;27.30;32.00
42965;DHT22;28604;51.204;22.552;2023-04-21T12:34:51;27.10;33.00
42965;DHT22;28604;51.204;22.552;2023-04-21T12:37:18;27.10;33.70
42965;DHT22;28604;51.204;22.552;2023-04-21T12:39:43;27.10;33.80
42965;DHT22;28604;51.204;22.552;2023-04-21T12:42:10;27.10;34.10
42965;DHT22;28604;51.204;22.552;2023-04-21T12:44:37;27.30;34.10
42965;DHT22;28604;51.204;22.552;2023-04-21T12:47:03;27.00;33.90
42965;DHT22;28604;51.204;22.552;2023-04-21T12:49:29;27.00;34.10
42965;DHT22;28604;51.204;22.552;2023-04-21T12:51:55;27.00;34.30
42965;DHT22;28604;51.204;22.552;2023-04-21T12:54:21;26.70;34.70
42965;DHT22;28604;51.204;22.552;2023-04-21T12:56:47;26.80;35.20
42965;DHT22;28604;51.204;22.552;2023-04-21T12:59:13;26.80;35.60
42965;DHT22;28604;51.204;22.552;2023-04-21T13:01:39;26.90;35.90
42965;DHT22;28604;51.204;22.552;2023-04-21T13:04:07;27.00;35.60
42965;DHT22;28604;51.204;22.552;2023-04-21T13:06:33;27.00;35.40
42965;DHT22;28604;51.204;22.552;2023-04-21T13:08:59;27.10;35.20
42965;DHT22;28604;51.204;22.552;2023-04-21T13:11:25;27.00;35.20
42965;DHT22;28604;51.204;22.552;2023-04-21T13:13:51;26.90;35.50
42965;DHT22;28604;51.204;22.552;2023-04-21T13:16:17;26.90;35.20
42965;DHT22;28604;51.204;22.552;2023-04-21T13:18:44;26.90;35.20
42965;DHT22;28604;51.204;22.552;2023-04-21T13:21:11;26.90;35.30
42965;DHT22;28604;51.204;22.552;2023-04-21T13:23:37;26.80;34.80
42965;DHT22;28604;51.204;22.552;2023-04-21T13:26:03;26.90;35.10
42965;DHT22;28604;51.204;22.552;2023-04-21T13:28:29;26.80;35.00
42965;DHT22;28604;51.204;22.552;2023-04-21T13:30:56;26.80;34.80
42965;DHT22;28604;51.204;22.552;2023-04-21T13:33:22;26.60;34.60
42965;DHT22;28604;51.204;22.552;2023-04-21T13:35:48;26.40;34.40
42965;DHT22;28604;51.204;22.552;2023-04-21T13:38:15;26.30;34.80
42965;DHT22;28604;51.204;22.552;2023-04-21T13:40:41;26.20;34.60
42965;DHT22;28604;51.204;22.552;2023-04-21T13:43:07;26.20;35.00
42965;DHT22;28604;51.204;22.552;2023-04-21T13:45:34;26.20;35.20
42965;DHT22;28604;51.204;22.552;2023-04-21T13:48:00;26.20;34.80
42965;DHT22;28604;51.204;22.552;2023-04-21T13:50:26;26.10;35.00
42965;DHT22;28604;51.204;22.552;2023-04-21T13:52:51;26.10;34.60
42965;DHT22;28604;51.204;22.552;2023-04-21T13:55:19;26.10;34.20
42965;DHT22;28604;51.204;22.552;2023-04-21T13:57:45;26.10;34.40
42965;DHT22;28604;51.204;22.552;2023-04-21T14:00:12;26.20;35.20
42965;DHT22;28604;51.204;22.552;2023-04-21T14:02:38;26.10;34.60
42965;DHT22;28604;51.204;22.552;2023-04-21T14:05:04;25.90;34.90
42965;DHT22;28604;51.204;22.552;2023-04-21T14:07:30;25.80;34.70
42965;DHT22;28604;51.204;22.552;2023-04-21T14:09:56;25.70;34.80
42965;DHT22;28604;51.204;22.552;2023-04-21T14:12:22;25.60;35.10
42965;DHT22;28604;51.204;22.552;2023-04-21T14:14:51;25.50;35.50
42965;DHT22;28604;51.204;22.552;2023-04-21T14:17:17;25.50;35.60
42965;DHT22;28604;51.204;22.552;2023-04-21T14:19:43;25.50;35.70
42965;DHT22;28604;51.204;22.552;2023-04-21T14:22:09;25.50;35.80
42965;DHT22;28604;51.204;22.552;2023-04-21T14:24:35;25.50;35.60
42965;DHT22;28604;51.204;22.552;2023-04-21T14:27:01;25.50;35.60
42965;DHT22;28604;51.204;22.552;2023-04-21T14:29:27;25.40;35.80
42965;DHT22;28604;51.204;22.552;2023-04-21T14:31:52;25.50;36.00
42965;DHT22;28604;51.204;22.552;2023-04-21T14:34:23;25.40;35.70
42965;DHT22;28604;51.204;22.552;2023-04-21T14:36:50;25.30;35.90
42965;DHT22;28604;51.204;22.552;2023-04-21T14:39:17;25.20;36.10
42965;DHT22;28604;51.204;22.552;2023-04-21T14:41:43;25.20;36.30
42965;DHT22;28604;51.204;22.552;2023-04-21T14:44:09;25.20;36.10
42965;DHT22;28604;51.204;22.552;2023-04-21T14:46:35;25.20;35.90
42965;DHT22;28604;51.204;22.552;2023-04-21T14:49:02;25.10;35.80
42965;DHT22;28604;51.204;22.552;2023-04-21T14:51:28;25.00;35.20
42965;DHT22;28604;51.204;22.552;2023-04-21T14:53:54;24.90;35.80
42965;DHT22;28604;51.204;22.552;2023-04-21T14:56:20;24.70;36.00
42965;DHT22;28604;51.204;22.552;2023-04-21T14:58:46;24.70;36.10
42965;DHT22;28604;51.204;22.552;2023-04-21T15:01:12;24.60;36.10
42965;DHT22;28604;51.204;22.552;2023-04-21T15:03:38;24.50;35.90
42965;DHT22;28604;51.204;22.552;2023-04-21T15:06:05;24.50;36.20
42965;DHT22;28604;51.204;22.552;2023-04-21T15:08:31;24.60;36.50
42965;DHT22;28604;51.204;22.552;2023-04-21T15:10:57;24.60;36.40
42965;DHT22;28604;51.204;22.552;2023-04-21T15:13:23;24.50;36.60
42965;DHT22;28604;51.204;22.552;2023-04-21T15:15:49;24.50;36.80
42965;DHT22;28604;51.204;22.552;2023-04-21T15:18:17;24.40;36.50
42965;DHT22;28604;51.204;22.552;2023-04-21T15:20:43;24.30;36.70
42965;DHT22;28604;51.204;22.552;2023-04-21T15:23:10;24.30;36.70
42965;DHT22;28604;51.204;22.552;2023-04-21T15:25:36;24.20;37.00
42965;DHT22;28604;51.204;22.552;2023-04-21T15:28:02;24.10;37.10